createdAt,value
2022-08-09T00:00:28.687Z,5.22
2022-08-09T00:02:55.513Z,5.55
2022-08-09T00:06:17.601Z,7.43
2022-08-09T00:08:13.151Z,6.18
2022-08-09T00:10:58.618Z,5.60
2022-08-09T00:13:25.349Z,7.32
2022-08-09T00:15:59.894Z,4.37
2022-08-09T00:18:34.916Z,4.95
2022-08-09T00:23:54.930Z,7.03
2022-08-09T00:26:17.746Z,4.82
2022-08-09T00:28:52.378Z,5.68
2022-08-09T00:32:00.055Z,5.50
2022-08-09T00:34:11.019Z,6.65
2022-08-09T00:36:38.181Z,6.18
2022-08-09T00:39:10.967Z,5.53
2022-08-09T00:44:17.149Z,5.20
2022-08-09T00:44:42.760Z,4.60
2022-08-09T00:47:24.710Z,4.12
2022-08-09T00:49:55.120Z,4.35
2022-08-09T00:52:30.615Z,4.72
2022-08-09T00:55:00.152Z,6.40
2022-08-09T00:57:34.435Z,7.03
2022-08-09T01:00:21.391Z,5.37
2022-08-09T01:03:17.100Z,5.82
2022-08-09T01:06:03.891Z,5.70
2022-08-09T01:09:25.558Z,5.82
2022-08-09T01:12:27.939Z,6.50
2022-08-09T01:15:16.656Z,7.07
2022-08-09T01:18:07.319Z,7.12
2022-08-09T01:21:12.476Z,6.97
2022-08-09T01:24:09.953Z,6.07
2022-08-09T01:26:57.833Z,6.50
2022-08-09T01:29:56.386Z,5.57
2022-08-09T01:32:45.469Z,7.93
2022-08-09T01:35:38.748Z,7.12
2022-08-09T01:38:31.608Z,7.35
2022-08-09T01:41:32.342Z,6.65
2022-08-09T01:44:02.387Z,7.95
2022-08-09T01:46:48.312Z,6.68
2022-08-09T01:49:17.325Z,6.30
2022-08-09T01:51:53.504Z,6.37
2022-08-09T01:54:39.659Z,7.05
2022-08-09T01:57:16.461Z,9.40
2022-08-09T01:59:51.928Z,6.65
2022-08-09T02:02:22.202Z,7.30
2022-08-09T02:04:50.845Z,5.97
2022-08-09T02:08:38.992Z,6.18
2022-08-09T02:10:14.222Z,7.05
2022-08-09T02:13:06.705Z,6.78
2022-08-09T02:15:50.628Z,7.47
2022-08-09T02:18:20.990Z,6.70
2022-08-09T02:20:55.165Z,7.15
2022-08-09T02:23:42.911Z,6.50
2022-08-09T02:26:24.974Z,6.87
2022-08-09T02:28:59.585Z,10.10
2022-08-09T02:31:44.845Z,6.47
2022-08-09T02:34:41.014Z,5.22
2022-08-09T02:37:08.032Z,5.90
2022-08-09T02:39:45.374Z,6.10
2022-08-09T02:42:24.877Z,5.65
2022-08-09T02:44:59.023Z,6.40
2022-08-09T02:47:57.654Z,4.57
2022-08-09T02:50:57.113Z,6.70
2022-08-09T02:53:31.531Z,6.57
2022-08-09T02:56:03.429Z,5.40
2022-08-09T02:58:37.530Z,7.57
2022-08-09T03:01:08.008Z,5.65
2022-08-09T03:04:18.134Z,5.30
2022-08-09T03:06:36.401Z,6.65
2022-08-09T03:09:04.215Z,5.78
2022-08-09T03:12:10.652Z,6.65
2022-08-09T03:14:26.535Z,6.18
2022-08-09T03:16:58.318Z,8.25
2022-08-09T03:19:59.116Z,5.65
2022-08-09T03:22:41.414Z,5.87
2022-08-09T03:25:59.303Z,4.40
2022-08-09T03:28:20.619Z,8.48
2022-08-09T03:30:49.078Z,6.68
2022-08-09T03:33:19.637Z,6.50
2022-08-09T03:36:15.586Z,5.75
2022-08-09T03:38:43.481Z,5.68
2022-08-09T03:41:18.605Z,10.85
2022-08-09T03:44:03.341Z,6.40
2022-08-09T03:46:34.943Z,5.87
2022-08-09T03:49:07.845Z,7.82
2022-08-09T03:51:54.205Z,7.62
2022-08-09T03:54:31.377Z,8.43
2022-08-09T03:57:22.995Z,7.87
2022-08-09T03:59:54.705Z,10.00
2022-08-09T04:02:27.984Z,7.75
2022-08-09T04:05:01.213Z,8.68
2022-08-09T04:07:47.608Z,8.00
2022-08-09T04:10:29.257Z,7.20
2022-08-09T04:13:01.061Z,8.18
2022-08-09T04:16:18.613Z,6.75
2022-08-09T04:18:19.228Z,4.93
2022-08-09T04:20:51.444Z,6.82
2022-08-09T04:23:24.661Z,6.28
2022-08-09T04:25:54.774Z,6.97
2022-08-09T04:28:30.763Z,9.52
2022-08-09T04:31:09.392Z,5.87
2022-08-09T04:33:52.497Z,8.68
2022-08-09T04:36:28.180Z,7.62
2022-08-09T04:38:57.286Z,7.20
2022-08-09T04:41:32.364Z,8.10
2022-08-09T04:44:07.274Z,8.38
2022-08-09T04:47:04.560Z,7.50
2022-08-09T04:49:57.019Z,9.77
2022-08-09T04:52:27.496Z,8.35
2022-08-09T04:54:59.581Z,6.75
2022-08-09T04:57:59.172Z,6.72
2022-08-09T05:00:14.291Z,7.25
2022-08-09T05:02:44.304Z,7.40
2022-08-09T05:05:32.205Z,8.68
2022-08-09T05:08:14.801Z,9.55
2022-08-09T05:10:42.136Z,11.25
2022-08-09T05:13:09.700Z,8.80
2022-08-09T05:15:39.250Z,9.55
2022-08-09T05:18:37.906Z,9.07
2022-08-09T05:21:24.703Z,8.88
2022-08-09T05:24:15.312Z,8.85
2022-08-09T05:26:47.671Z,8.48
2022-08-09T05:29:22.222Z,8.73
2022-08-09T05:31:56.695Z,7.87
2022-08-09T05:34:30.983Z,7.47
2022-08-09T05:37:06.047Z,7.25
2022-08-09T05:39:49.586Z,7.28
2022-08-09T05:42:21.198Z,5.70
2022-08-09T05:44:50.779Z,7.10
2022-08-09T05:47:22.715Z,7.22
2022-08-09T05:50:25.038Z,9.33
2022-08-09T05:52:38.471Z,8.18
2022-08-09T05:55:43.176Z,7.10
2022-08-09T05:59:17.173Z,7.85
2022-08-09T06:04:10.516Z,13.77
2022-08-09T06:06:40.753Z,6.80
2022-08-09T06:09:23.128Z,7.62
2022-08-09T06:11:57.978Z,7.87
2022-08-09T06:14:25.099Z,7.47
2022-08-09T06:16:52.676Z,9.85
2022-08-09T06:19:19.422Z,9.32
2022-08-09T06:21:51.626Z,10.90
2022-08-09T06:24:25.608Z,10.75
2022-08-09T06:26:52.942Z,8.02
2022-08-09T06:29:19.640Z,9.20
2022-08-09T06:32:09.237Z,8.73
2022-08-09T06:34:35.056Z,10.95
2022-08-09T06:37:03.614Z,9.48
2022-08-09T06:39:49.165Z,12.35
2022-08-09T06:42:30.618Z,9.48
2022-08-09T06:44:58.505Z,10.57
2022-08-09T06:47:25.686Z,9.75
2022-08-09T06:50:14.606Z,8.57
2022-08-09T06:52:48.452Z,7.72
2022-08-09T06:55:17.888Z,8.00
2022-08-09T06:58:02.585Z,9.75
2022-08-09T07:00:48.873Z,8.85
2022-08-09T07:03:27.950Z,12.40
2022-08-09T07:08:30.742Z,13.55
2022-08-09T07:10:59.625Z,14.48
2022-08-09T07:13:30.582Z,9.30
2022-08-09T07:16:43.303Z,8.60
2022-08-09T07:18:47.502Z,9.13
2022-08-09T07:21:17.138Z,10.38
2022-08-09T07:23:56.745Z,10.13
2022-08-09T07:26:26.482Z,8.77
2022-08-09T07:29:08.662Z,8.73
2022-08-09T07:31:44.926Z,10.85
2022-08-09T07:34:20.143Z,14.02
2022-08-09T07:36:49.457Z,11.30
2022-08-09T07:39:20.306Z,9.05
2022-08-09T07:42:03.880Z,10.90
2022-08-09T07:44:52.062Z,10.13
2022-08-09T07:47:19.304Z,8.85
2022-08-09T07:50:04.788Z,8.25
2022-08-09T07:52:35.814Z,6.97
2022-08-09T07:55:08.877Z,8.90
2022-08-09T07:57:36.547Z,7.72
2022-08-09T08:00:36.145Z,9.32
2022-08-09T08:03:08.308Z,5.90
2022-08-09T08:05:54.051Z,7.97
2022-08-09T08:09:02.145Z,8.77
2022-08-09T08:12:11.233Z,6.45
2022-08-09T08:13:57.282Z,9.13
2022-08-09T08:20:51.037Z,6.93
2022-08-09T08:23:18.708Z,7.97
2022-08-09T08:25:49.878Z,9.25
2022-08-09T08:28:26.199Z,7.68
2022-08-09T08:31:00.802Z,7.25
2022-08-09T08:33:40.731Z,8.88
2022-08-09T08:36:28.407Z,5.75
2022-08-09T08:38:56.695Z,9.00
2022-08-09T08:41:24.715Z,7.05
2022-08-09T08:44:09.572Z,7.43
2022-08-09T08:46:59.385Z,10.18
2022-08-09T08:49:38.927Z,7.10
2022-08-09T08:52:48.433Z,12.88
2022-08-09T08:55:05.563Z,6.32
2022-08-09T09:18:30.448Z,7.30
2022-08-09T09:20:57.763Z,7.20
2022-08-09T09:24:21.909Z,5.90
2022-08-09T09:26:59.043Z,7.12
2022-08-09T09:56:04.443Z,6.65
2022-08-09T10:41:56.599Z,4.87
2022-08-09T11:03:11.987Z,6.28
2022-08-09T11:04:29.840Z,4.70
2022-08-09T11:20:22.061Z,5.43
2022-08-09T11:25:47.765Z,6.20
2022-08-09T11:28:54.320Z,6.85
2022-08-09T11:31:49.153Z,4.37
2022-08-09T11:34:56.871Z,4.70
2022-08-09T11:37:31.237Z,5.78
2022-08-09T11:40:10.404Z,4.85
2022-08-09T11:42:50.022Z,6.32
2022-08-09T11:45:42.572Z,5.70
2022-08-09T11:48:19.450Z,4.10
2022-08-09T11:51:21.316Z,3.97
2022-08-09T11:53:59.947Z,8.80
2022-08-09T11:56:41.690Z,7.07
2022-08-09T11:59:30.402Z,6.25
2022-08-09T12:02:34.126Z,4.80
2022-08-09T12:04:47.345Z,4.55
2022-08-09T12:07:14.921Z,4.12
2022-08-09T12:09:50.561Z,5.87
2022-08-09T12:12:20.490Z,6.03
2022-08-09T12:15:08.081Z,5.18
2022-08-09T12:17:43.539Z,7.65
2022-08-09T12:20:16.547Z,6.45
2022-08-09T12:23:07.159Z,8.85
2022-08-09T12:25:37.592Z,4.07
2022-08-09T12:29:13.166Z,4.68
2022-08-09T12:31:58.087Z,7.75
2022-08-09T12:34:13.614Z,4.70
2022-08-09T12:37:29.028Z,4.45
2022-08-09T12:40:38.989Z,5.62
2022-08-09T12:44:05.583Z,6.75
2022-08-09T12:46:40.743Z,6.82
2022-08-09T12:49:08.861Z,7.90
2022-08-09T12:52:00.886Z,7.03
2022-08-09T12:54:22.495Z,7.43
2022-08-09T12:56:54.135Z,7.10
2022-08-09T12:59:24.983Z,5.55
2022-08-09T13:02:11.566Z,6.00
2022-08-09T13:05:00.587Z,8.60
2022-08-09T13:07:51.004Z,7.32
2022-08-09T13:10:18.345Z,6.28
2022-08-09T13:13:08.905Z,6.07
2022-08-09T13:15:35.996Z,6.78
2022-08-09T13:18:09.415Z,4.35
2022-08-09T13:21:04.045Z,5.37
2022-08-09T13:24:16.029Z,6.18
2022-08-09T13:26:49.951Z,6.18
2022-08-09T13:29:28.361Z,4.57
2022-08-09T13:32:13.913Z,7.87
2022-08-09T13:34:46.226Z,5.82
2022-08-09T13:37:24.808Z,7.95
2022-08-09T13:41:50.483Z,7.97
2022-08-09T13:48:10.618Z,7.15
2022-08-09T13:50:37.830Z,5.10
2022-08-09T13:53:05.375Z,12.73
2022-08-09T13:55:34.392Z,5.70
2022-08-09T14:00:50.587Z,6.82
2022-08-09T14:04:03.500Z,6.68
2022-08-09T14:06:19.426Z,7.00
2022-08-09T14:08:53.764Z,5.28
2022-08-09T14:11:20.830Z,5.82
2022-08-09T14:14:23.002Z,4.00
2022-08-09T14:19:15.530Z,6.50
2022-08-09T14:21:47.385Z,7.22
2022-08-09T14:24:18.790Z,5.35
2022-08-09T14:26:51.150Z,5.20
2022-08-09T14:29:25.772Z,5.25
2022-08-09T14:32:11.107Z,5.68
2022-08-09T14:34:40.949Z,6.28
2022-08-09T14:37:08.523Z,9.88
2022-08-09T14:39:47.913Z,4.40
2022-08-09T14:42:32.158Z,5.57
2022-08-09T14:46:51.435Z,4.05
2022-08-09T14:47:57.966Z,5.72
2022-08-09T14:50:31.130Z,5.87
2022-08-09T14:52:59.762Z,8.73
2022-08-09T14:55:32.394Z,9.55
2022-08-09T14:58:05.002Z,5.20
2022-08-09T15:00:35.202Z,5.03
2022-08-09T15:03:06.114Z,6.68
2022-08-09T15:05:34.293Z,10.73
2022-08-09T15:08:04.461Z,6.00
2022-08-09T15:10:32.711Z,13.23
2022-08-09T15:13:02.968Z,4.37
2022-08-09T15:15:30.620Z,7.12
2022-08-09T15:18:01.509Z,5.30
2022-08-09T15:22:01.085Z,4.47
2022-08-09T15:28:28.463Z,6.57
2022-08-09T15:31:13.215Z,4.20
2022-08-09T15:34:17.282Z,7.45
2022-08-09T15:36:30.424Z,5.90
2022-08-09T15:39:00.022Z,5.00
2022-08-09T15:41:31.366Z,12.77
2022-08-09T15:46:32.900Z,7.35
2022-08-09T15:49:22.975Z,5.57
2022-08-09T15:54:31.380Z,5.55
2022-08-09T15:59:36.699Z,6.62
2022-08-09T16:02:04.447Z,4.62
2022-08-09T16:04:34.465Z,4.32
2022-08-09T16:07:04.191Z,14.32
2022-08-09T16:09:32.703Z,11.10
2022-08-09T16:12:17.618Z,5.70
2022-08-09T16:14:44.635Z,6.35
2022-08-09T16:17:12.755Z,5.57
2022-08-09T16:19:49.459Z,5.65
2022-08-09T16:22:30.500Z,5.00
2022-08-09T16:24:59.529Z,6.00
2022-08-09T16:27:29.953Z,5.53
2022-08-09T16:30:00.739Z,4.15
2022-08-09T16:33:11.590Z,4.90
2022-08-09T16:38:19.912Z,4.35
2022-08-09T16:40:49.363Z,6.60
2022-08-09T16:43:18.361Z,6.25
2022-08-09T16:45:53.361Z,7.28
2022-08-09T16:48:59.960Z,6.65
2022-08-09T16:52:06.445Z,6.45
2022-08-09T16:54:55.629Z,16.45
2022-08-09T16:57:22.437Z,6.68
2022-08-09T16:59:57.815Z,8.00
2022-08-09T17:02:25.483Z,6.45
2022-08-09T17:04:52.708Z,5.75
2022-08-09T17:08:45.395Z,8.05
2022-08-09T17:10:09.174Z,4.78
2022-08-09T17:12:37.848Z,6.45
2022-08-09T17:15:31.159Z,5.10
2022-08-09T17:17:51.781Z,5.70
2022-08-09T17:20:35.749Z,8.55
2022-08-09T17:24:21.101Z,7.07
2022-08-09T17:26:17.548Z,17.25
2022-08-09T17:28:56.132Z,14.15
2022-08-09T17:31:23.985Z,27.48
2022-08-09T17:33:56.533Z,35.50
2022-08-09T17:36:25.963Z,23.38
2022-08-09T17:50:56.324Z,9.82
2022-08-09T17:53:26.140Z,11.27
2022-08-09T17:55:57.629Z,9.05
2022-08-09T17:58:27.771Z,7.75
2022-08-09T18:00:58.569Z,5.43
2022-08-09T18:03:31.708Z,7.05
2022-08-09T18:06:00.869Z,6.30
2022-08-09T18:08:28.130Z,5.62
2022-08-09T18:11:02.107Z,5.43
2022-08-09T18:13:43.019Z,7.93
2022-08-09T18:16:30.234Z,5.50
2022-08-09T18:18:59.337Z,4.87
2022-08-09T18:21:31.848Z,9.98
2022-08-09T18:24:14.254Z,6.75
2022-08-09T18:26:46.412Z,9.05
2022-08-09T18:30:42.269Z,5.87
2022-08-09T18:32:05.073Z,4.15
2022-08-09T18:34:35.149Z,6.07
2022-08-09T18:37:10.218Z,5.47
2022-08-09T18:39:52.825Z,5.20
2022-08-09T18:42:19.633Z,4.07
2022-08-09T18:44:54.992Z,6.90
2022-08-09T18:47:24.123Z,4.90
2022-08-09T18:49:54.393Z,5.25
2022-08-09T18:52:24.912Z,5.53
2022-08-09T18:55:01.492Z,4.40
2022-08-09T18:57:38.673Z,6.95
2022-08-09T19:00:16.408Z,10.50
2022-08-09T19:02:50.842Z,6.00
2022-08-09T19:05:28.696Z,13.82
2022-08-09T19:08:10.590Z,3.92
2022-08-09T19:10:40.815Z,3.08
2022-08-09T19:13:23.539Z,4.37
2022-08-09T19:15:58.620Z,6.25
2022-08-09T19:18:32.957Z,7.12
2022-08-09T19:21:01.181Z,5.97
2022-08-09T19:24:35.417Z,3.80
2022-08-09T19:26:16.086Z,3.30
2022-08-09T19:28:48.990Z,3.62
2022-08-09T19:31:16.844Z,3.90
2022-08-09T19:33:43.853Z,6.60
2022-08-09T19:36:13.265Z,3.20
2022-08-09T19:38:40.134Z,5.85
2022-08-09T19:41:06.870Z,4.10
2022-08-09T19:44:01.642Z,3.40
2022-08-09T19:46:35.384Z,5.80
2022-08-09T19:50:09.150Z,6.93
2022-08-09T19:51:57.024Z,3.55
2022-08-09T19:54:27.496Z,3.58
2022-08-09T19:57:03.515Z,3.92
2022-08-09T19:59:58.827Z,3.58
2022-08-09T20:04:08.157Z,3.78
2022-08-09T20:05:10.348Z,5.93
2022-08-09T20:07:59.181Z,3.83
2022-08-09T20:10:34.769Z,4.40
2022-08-09T20:13:05.232Z,3.25
2022-08-09T20:16:33.142Z,2.15
2022-08-09T20:18:19.689Z,2.12
2022-08-09T20:20:47.201Z,2.78
2022-08-09T20:23:19.452Z,2.67
2022-08-09T20:25:51.910Z,1.17
2022-08-09T20:28:34.342Z,4.97
2022-08-09T20:31:02.846Z,2.75
2022-08-09T20:33:41.347Z,4.87
2022-08-09T20:36:12.333Z,6.72
2022-08-09T20:41:35.530Z,4.95
2022-08-09T20:44:10.559Z,4.68
2022-08-09T20:46:42.797Z,2.53
2022-08-09T20:49:16.166Z,2.65
2022-08-09T20:51:44.177Z,6.03
2022-08-09T20:54:12.504Z,8.90
2022-08-09T20:56:39.500Z,4.80
2022-08-09T20:59:07.738Z,4.25
2022-08-09T21:01:50.302Z,3.60
2022-08-09T21:05:54.350Z,3.42
2022-08-09T21:07:12.375Z,3.95
2022-08-09T21:09:45.577Z,4.55
2022-08-09T21:14:48.397Z,2.65
2022-08-09T21:18:22.214Z,3.22
2022-08-09T21:20:05.217Z,3.50
2022-08-09T21:22:52.647Z,2.00
2022-08-09T21:25:39.947Z,2.10
2022-08-09T21:28:11.827Z,5.00
2022-08-09T21:30:40.320Z,2.47
2022-08-09T21:33:08.094Z,3.70
2022-08-09T21:35:39.479Z,2.00
2022-08-09T21:38:09.356Z,5.95
2022-08-09T21:40:37.194Z,3.12
2022-08-09T21:43:06.182Z,3.40
2022-08-09T21:45:38.787Z,5.03
2022-08-09T21:48:07.104Z,2.97
2022-08-09T21:50:36.031Z,4.45
2022-08-09T21:53:23.815Z,2.40
2022-08-09T21:55:54.469Z,1.92
2022-08-09T21:58:21.090Z,4.45
2022-08-09T22:00:55.924Z,2.72
2022-08-09T22:03:25.277Z,2.42
2022-08-09T22:05:53.231Z,3.03
2022-08-09T22:08:24.489Z,3.15
2022-08-09T22:11:49.452Z,1.73
2022-08-09T22:13:43.389Z,2.50
2022-08-09T22:16:10.976Z,2.95
2022-08-09T22:18:53.614Z,3.65
2022-08-09T22:21:24.242Z,1.35
2022-08-09T22:23:59.386Z,4.05
2022-08-09T22:26:35.192Z,3.90
2022-08-09T22:29:07.452Z,1.90
2022-08-09T22:31:36.506Z,5.25
2022-08-09T22:34:03.645Z,4.37
2022-08-09T22:36:45.708Z,3.03
2022-08-09T22:39:46.876Z,3.28
2022-08-09T22:42:06.081Z,3.25
2022-08-09T22:44:48.411Z,2.42
2022-08-09T22:48:13.476Z,3.30
2022-08-09T22:50:13.511Z,2.05
2022-08-09T22:52:41.255Z,5.30
2022-08-09T22:55:08.569Z,1.83
2022-08-09T22:57:59.718Z,4.00
2022-08-09T23:00:29.242Z,2.40
2022-08-09T23:02:56.415Z,5.20
2022-08-09T23:05:23.117Z,5.70
2022-08-09T23:08:21.776Z,2.72
2022-08-09T23:10:50.050Z,3.10
2022-08-09T23:13:16.651Z,2.65
2022-08-09T23:15:43.280Z,1.40
2022-08-09T23:18:29.122Z,6.87
2022-08-09T23:20:55.975Z,2.60
2022-08-09T23:23:22.576Z,4.03
2022-08-09T23:25:49.459Z,3.47
2022-08-09T23:28:16.311Z,4.62
2022-08-09T23:30:51.402Z,1.77
2022-08-09T23:33:20.242Z,1.60
2022-08-09T23:36:04.637Z,2.67
2022-08-09T23:38:33.358Z,3.30
2022-08-09T23:40:59.952Z,7.60
2022-08-09T23:43:26.552Z,2.12
2022-08-09T23:45:53.214Z,2.55
2022-08-09T23:48:19.899Z,1.35
2022-08-09T23:50:46.597Z,3.65
2022-08-09T23:53:13.392Z,3.20
2022-08-09T23:55:48.351Z,2.58
2022-08-09T23:58:26.102Z,2.05
